Αρχική σελίδα
METAR-TAF:

METAR-TAF

Αεροδρόμια :

Cairns, Αυστραλία

γεωγραφικό πλάτος: 16-53S, γεωγραφικό μήκος: 145-45E, υψόμετρο: 3 μ

Παρών καιρός

Η αναφορά έγινε 44 λεπτά πριν, στις 17:00 UTC
Άνεμος 2 kt από Δ
Θερμοκρασία 13°C
Υγρασία 94%
Πίεση 1017 hPa
Ορατότητα 10 χλμ και άνω

METAR: YBCS 251700Z AUTO 26002KT 9999 // NCD 13/12 Q1017

Χρόνος: 03:44 (17:44 UTC)

Πρόγνωση Καιρού

Η αναφορά έγινε 44 λεπτά πριν, στις 17:00 UTC
Η πρόγνωση ισχύει από τις 25 στις 18 UTC έως τις 26 στις 18 UTC
Άνεμος 6 kt από Ν
Ορατότητα 10 χλμ και άνω
Λίγα νέφη σε ύψος 3000 πόδια
Από 26 στις 0000 UTC
Άνεμος 10 kt από Α/NA
Ορατότητα 10 χλμ και άνω
Λίγα νέφη σε ύψος 3500 πόδια
Από 26 στις 0900 UTC
Άνεμος 6 kt από Ν/ΝΔ
Ορατότητα 10 χλμ και άνω
Διάσπαρτα νέφη σε ύψος 3000 πόδια

TAF: YBCS 251700Z 2518/2618 17006KT 9999 FEW030 FM260000 12010KT 9999 FEW035 FM260900 21006KT 9999 SCT030

Μετεωρολογικές αναφορές και προγνώσεις για περισσότερα από 4000 αεροδρόμια (δελτία METAR και TAF).

Οι διαθέσιμοι σταθμοί απεικονίζονται στο χάρτη με κίτρινες και κόκκινες κουκκίδες.

Μετακινήστε το ποντίκι πάνω από τις κουκκίδες για να δείτε το όνομα του σταθμού.

Στη συνέχεια, κάντε κλικ για να δείτε τις μετεωρολογικές αναφορές και τις προγνώσεις καιρού.

Για να αλλάξετε το χάρτη: κάντε κλικ στα πράσινα κουμπιά με τον μαύρο σταυρό για να ζουμάρετε, στο πράσινο κουμπί με την παύλα για να αφαιρέσετε το ζουμ ή στα πράσινα βέλη για να αντιπαραβάλλετε χάρτες.


METAR-TAF: